createdAt,value
2018-12-11T00:00:43.037Z,18.05
2018-12-11T00:03:10.444Z,25.45
2018-12-11T00:05:37.839Z,20.70
2018-12-11T00:08:05.280Z,22.35
2018-12-11T00:10:32.672Z,19.37
2018-12-11T00:13:00.065Z,17.60
2018-12-11T00:15:27.459Z,13.68
2018-12-11T00:17:54.846Z,16.55
2018-12-11T00:20:22.308Z,18.67
2018-12-11T00:22:49.697Z,21.80
2018-12-11T00:25:17.092Z,27.67
2018-12-11T00:27:44.604Z,14.50
2018-12-11T00:30:12.009Z,21.62
2018-12-11T00:32:39.783Z,15.08
2018-12-11T00:35:08.080Z,19.05
2018-12-11T00:37:35.543Z,14.90
2018-12-11T00:40:02.996Z,16.35
2018-12-11T00:42:30.459Z,14.83
2018-12-11T00:44:57.877Z,17.48
2018-12-11T00:47:25.277Z,17.85
2018-12-11T00:49:52.672Z,13.78
2018-12-11T00:52:20.081Z,18.20
2018-12-11T00:54:47.504Z,13.93
2018-12-11T00:57:14.901Z,14.75
2018-12-11T00:59:42.309Z,9.85
2018-12-11T01:02:09.704Z,9.35
2018-12-11T01:04:37.246Z,17.45
2018-12-11T01:07:04.704Z,10.88
2018-12-11T01:09:32.120Z,11.78
2018-12-11T01:11:59.500Z,9.65
2018-12-11T01:14:26.888Z,5.90
2018-12-11T01:16:54.284Z,6.87
2018-12-11T01:19:21.780Z,16.10
2018-12-11T01:21:49.215Z,10.10
2018-12-11T01:24:16.625Z,16.17
2018-12-11T01:26:44.067Z,14.35
2018-12-11T01:29:11.516Z,10.95
2018-12-11T01:31:38.907Z,13.62
2018-12-11T01:34:11.049Z,13.85
2018-12-11T01:36:38.701Z,12.80
2018-12-11T01:39:12.605Z,15.60
2018-12-11T01:41:40.081Z,12.93
2018-12-11T01:44:07.512Z,11.70
2018-12-11T01:46:34.952Z,12.50
2018-12-11T01:49:02.362Z,9.00
2018-12-11T01:51:29.756Z,10.03
2018-12-11T01:53:57.157Z,10.03
2018-12-11T01:56:24.612Z,7.78
2018-12-11T01:58:52.119Z,12.73
2018-12-11T02:01:24.491Z,9.35
2018-12-11T02:03:52.000Z,7.10
2018-12-11T02:06:19.444Z,12.07
2018-12-11T02:08:47.006Z,9.90
2018-12-11T02:11:14.400Z,12.50
2018-12-11T02:13:41.842Z,7.08
2018-12-11T02:16:09.665Z,12.93
2018-12-11T02:18:37.056Z,8.30
2018-12-11T02:21:04.550Z,7.97
2018-12-11T02:23:32.037Z,10.18
2018-12-11T02:25:59.583Z,12.58
2018-12-11T02:28:26.979Z,11.97
2018-12-11T02:30:54.418Z,12.60
2018-12-11T02:33:21.814Z,19.42
2018-12-11T02:35:49.272Z,21.85
2018-12-11T02:38:16.673Z,9.15
2018-12-11T02:40:44.090Z,8.40
2018-12-11T02:43:11.485Z,8.98
2018-12-11T02:45:38.883Z,12.03
2018-12-11T02:48:06.281Z,9.33
2018-12-11T02:50:33.680Z,21.12
2018-12-11T02:53:01.093Z,12.58
2018-12-11T02:55:28.487Z,12.70
2018-12-11T02:57:56.008Z,6.67
2018-12-11T03:00:23.413Z,12.28
2018-12-11T03:02:50.817Z,10.28
2018-12-11T03:05:18.229Z,13.45
2018-12-11T03:07:45.625Z,12.15
2018-12-11T03:10:13.105Z,8.13
2018-12-11T03:12:40.513Z,13.45
2018-12-11T03:15:07.952Z,8.75
2018-12-11T03:17:35.353Z,8.80
2018-12-11T03:20:03.246Z,12.50
2018-12-11T03:22:30.634Z,16.85
2018-12-11T03:24:58.026Z,10.10
2018-12-11T03:27:25.417Z,10.08
2018-12-11T03:29:52.824Z,14.65
2018-12-11T03:32:20.223Z,12.53
2018-12-11T03:34:47.706Z,13.78
2018-12-11T03:37:15.197Z,9.80
2018-12-11T03:39:42.642Z,13.22
2018-12-11T03:42:10.045Z,9.23
2018-12-11T03:44:37.446Z,14.73
2018-12-11T03:47:04.844Z,10.75
2018-12-11T03:49:32.249Z,19.02
2018-12-11T03:51:59.648Z,10.68
2018-12-11T03:54:27.056Z,12.93
2018-12-11T03:56:54.445Z,11.20
2018-12-11T03:59:21.835Z,11.43
2018-12-11T04:01:49.233Z,15.45
2018-12-11T04:04:16.633Z,13.32
2018-12-11T04:06:44.116Z,13.03
2018-12-11T04:09:11.512Z,11.05
2018-12-11T04:11:38.925Z,11.10
2018-12-11T04:14:06.320Z,13.40
2018-12-11T04:16:33.721Z,7.55
2018-12-11T04:19:01.122Z,14.85
2018-12-11T04:21:28.520Z,13.78
2018-12-11T04:23:55.968Z,17.75
2018-12-11T04:26:23.424Z,49.65
2018-12-11T04:28:50.847Z,41.08
2018-12-11T04:31:18.246Z,24.75
2018-12-11T04:33:45.780Z,24.12
2018-12-11T04:36:13.175Z,16.73
2018-12-11T04:38:40.567Z,13.80
2018-12-11T04:41:07.967Z,11.65
2018-12-11T04:43:35.361Z,13.70
2018-12-11T04:46:02.760Z,30.17
2018-12-11T04:48:30.212Z,7.33
2018-12-11T04:50:57.612Z,8.13
2018-12-11T04:53:25.004Z,12.65
2018-12-11T04:55:52.403Z,15.13
2018-12-11T04:58:19.806Z,16.62
2018-12-11T05:00:47.248Z,17.45
2018-12-11T05:03:14.625Z,10.72
2018-12-11T05:05:42.027Z,18.12
2018-12-11T05:08:14.946Z,19.87
2018-12-11T05:10:42.409Z,7.65
2018-12-11T05:13:09.853Z,18.15
2018-12-11T05:15:37.264Z,16.77
2018-12-11T05:18:04.713Z,17.27
2018-12-11T05:20:32.125Z,15.28
2018-12-11T05:22:59.521Z,18.20
2018-12-11T05:25:26.952Z,37.35
2018-12-11T05:27:54.333Z,14.15
2018-12-11T05:30:21.728Z,15.13
2018-12-11T05:32:49.147Z,13.32
2018-12-11T05:35:16.621Z,16.48
2018-12-11T05:37:44.073Z,23.07
2018-12-11T05:40:11.468Z,8.40
2018-12-11T05:42:38.882Z,14.53
2018-12-11T05:45:06.373Z,23.62
2018-12-11T05:47:33.772Z,14.07
2018-12-11T05:50:01.179Z,17.20
2018-12-11T05:52:28.576Z,12.15
2018-12-11T05:54:55.962Z,13.18
2018-12-11T05:57:23.364Z,14.47
2018-12-11T05:59:50.764Z,17.25
2018-12-11T06:02:18.228Z,14.03
2018-12-11T06:04:45.665Z,19.95
2018-12-11T06:07:13.072Z,15.32
2018-12-11T06:09:40.472Z,14.18
2018-12-11T06:12:07.912Z,14.13
2018-12-11T06:14:35.324Z,11.85
2018-12-11T06:17:02.716Z,11.25
2018-12-11T06:19:30.112Z,15.32
2018-12-11T06:21:57.509Z,19.98
2018-12-11T06:24:24.913Z,12.60
2018-12-11T06:26:52.317Z,24.67
2018-12-11T06:29:19.725Z,13.55
2018-12-11T06:31:47.187Z,19.57
2018-12-11T06:34:14.656Z,14.47
2018-12-11T06:36:42.046Z,28.02
2018-12-11T06:39:09.448Z,15.60
2018-12-11T06:41:36.846Z,17.77
2018-12-11T06:44:04.308Z,10.30
2018-12-11T06:46:31.726Z,22.35
2018-12-11T06:48:59.124Z,11.93
2018-12-11T06:51:26.534Z,19.25
2018-12-11T06:53:53.925Z,17.98
2018-12-11T06:56:21.382Z,12.25
2018-12-11T06:58:48.788Z,15.68
2018-12-11T07:01:16.269Z,15.70
2018-12-11T07:03:43.671Z,16.60
2018-12-11T07:06:11.062Z,23.55
2018-12-11T07:08:38.525Z,20.80
2018-12-11T07:11:05.917Z,18.82
2018-12-11T07:13:33.316Z,20.15
2018-12-11T07:16:00.835Z,18.55
2018-12-11T07:18:28.224Z,22.30
2018-12-11T07:20:55.657Z,26.02
2018-12-11T07:23:23.051Z,16.65
2018-12-11T07:25:50.437Z,12.63
2018-12-11T07:28:17.901Z,28.98
2018-12-11T07:30:45.294Z,14.78
2018-12-11T07:33:12.684Z,15.70
2018-12-11T07:35:40.081Z,19.90
2018-12-11T07:38:07.539Z,23.32
2018-12-11T07:40:34.989Z,14.05
2018-12-11T07:43:02.372Z,14.85
2018-12-11T07:45:29.836Z,17.25
2018-12-11T07:47:57.239Z,21.10
2018-12-11T07:50:24.641Z,15.83
2018-12-11T07:52:52.044Z,18.90
2018-12-11T07:55:19.509Z,19.70
2018-12-11T07:57:46.939Z,15.13
2018-12-11T08:00:14.426Z,16.25
2018-12-11T08:02:41.825Z,13.50
2018-12-11T08:05:09.239Z,14.65
2018-12-11T08:07:36.733Z,14.20
2018-12-11T08:10:05.561Z,13.43
2018-12-11T08:12:33.043Z,23.05
2018-12-11T08:15:00.432Z,11.90
2018-12-11T08:17:27.824Z,16.62
2018-12-11T08:19:55.253Z,11.20
2018-12-11T08:22:22.671Z,22.05
2018-12-11T08:24:50.065Z,15.53
2018-12-11T08:27:19.584Z,15.18
2018-12-11T08:29:47.015Z,19.55
2018-12-11T08:32:14.405Z,17.20
2018-12-11T08:34:41.803Z,17.00
2018-12-11T08:37:09.219Z,19.05
2018-12-11T08:39:36.647Z,13.13
2018-12-11T08:42:04.056Z,22.90
2018-12-11T08:44:31.492Z,32.38
2018-12-11T08:46:58.878Z,25.25
2018-12-11T08:49:26.267Z,20.20
2018-12-11T08:51:53.681Z,18.20
2018-12-11T08:54:21.088Z,13.70
2018-12-11T08:56:48.526Z,12.82
2018-12-11T08:59:15.941Z,17.65
2018-12-11T09:01:43.394Z,15.95
2018-12-11T09:04:10.834Z,19.95
2018-12-11T09:06:38.223Z,18.70
2018-12-11T09:09:06.124Z,11.68
2018-12-11T09:11:33.554Z,16.10
2018-12-11T09:14:00.948Z,25.85
2018-12-11T09:16:28.365Z,13.80
2018-12-11T09:18:55.763Z,21.23
2018-12-11T09:21:23.200Z,11.75
2018-12-11T09:23:50.622Z,14.30
2018-12-11T09:26:18.016Z,15.58
2018-12-11T09:28:45.432Z,16.95
2018-12-11T09:31:12.825Z,16.10
2018-12-11T09:33:40.235Z,17.73
2018-12-11T09:36:07.633Z,14.78
2018-12-11T09:38:35.382Z,21.35
2018-12-11T09:41:02.955Z,19.17
2018-12-11T09:43:30.413Z,20.37
2018-12-11T09:45:57.853Z,26.97
2018-12-11T09:48:25.277Z,14.33
2018-12-11T09:50:52.768Z,16.52
2018-12-11T09:53:20.192Z,14.73
2018-12-11T09:55:47.571Z,13.45
2018-12-11T09:58:14.977Z,16.25
2018-12-11T10:00:42.482Z,19.17
2018-12-11T10:03:10.132Z,24.63
2018-12-11T10:05:37.556Z,15.13
2018-12-11T10:08:05.007Z,19.73
2018-12-11T10:10:32.443Z,14.10
2018-12-11T10:12:59.843Z,16.00
2018-12-11T10:15:27.299Z,16.42
2018-12-11T10:17:54.690Z,28.00
2018-12-11T10:20:22.244Z,25.00
2018-12-11T10:22:49.661Z,14.40
2018-12-11T10:25:17.089Z,19.05
2018-12-11T10:27:44.509Z,18.75
2018-12-11T10:30:12.002Z,11.20
2018-12-11T10:32:39.399Z,15.45
2018-12-11T10:35:06.988Z,24.12
2018-12-11T10:37:34.384Z,14.58
2018-12-11T10:40:01.833Z,14.85
2018-12-11T10:42:29.253Z,15.15
2018-12-11T10:44:56.736Z,19.75
2018-12-11T10:47:24.158Z,12.03
2018-12-11T10:49:51.565Z,17.32
2018-12-11T10:52:18.956Z,17.15
2018-12-11T10:54:46.368Z,23.15
2018-12-11T10:57:13.761Z,19.27
2018-12-11T10:59:41.153Z,21.68
2018-12-11T11:02:14.095Z,14.70
2018-12-11T11:04:48.583Z,18.73
2018-12-11T11:07:15.972Z,20.05
2018-12-11T11:09:43.364Z,18.85
2018-12-11T11:12:10.808Z,15.65
2018-12-11T11:14:38.328Z,14.28
2018-12-11T11:17:05.733Z,19.57
2018-12-11T11:19:33.128Z,11.93
2018-12-11T11:22:00.522Z,17.82
2018-12-11T11:24:28.019Z,21.50
2018-12-11T11:26:55.405Z,22.17
2018-12-11T11:29:22.800Z,15.58
2018-12-11T11:31:50.200Z,22.02
2018-12-11T11:34:17.596Z,21.68
2018-12-11T11:36:45.002Z,26.97
2018-12-11T11:39:12.410Z,12.68
2018-12-11T11:41:41.310Z,14.63
2018-12-11T11:44:08.712Z,19.37
2018-12-11T11:46:36.124Z,16.23
2018-12-11T11:49:03.635Z,19.95
2018-12-11T11:51:31.116Z,19.60
2018-12-11T11:53:58.513Z,21.10
2018-12-11T11:56:25.910Z,12.23
2018-12-11T11:58:53.299Z,20.15
2018-12-11T12:01:20.753Z,21.12
2018-12-11T12:03:48.140Z,16.23
2018-12-11T12:06:15.549Z,12.68
2018-12-11T12:08:42.951Z,11.18
2018-12-11T12:11:10.341Z,11.00
2018-12-11T12:13:37.809Z,10.82
2018-12-11T12:16:05.252Z,10.98
2018-12-11T12:18:32.645Z,14.05
2018-12-11T12:21:00.054Z,15.20
2018-12-11T12:23:27.434Z,16.75
2018-12-11T12:25:55.188Z,10.80
2018-12-11T12:28:22.717Z,17.57
2018-12-11T12:30:50.826Z,23.00
2018-12-11T12:33:18.213Z,18.80
2018-12-11T12:35:45.604Z,19.55
2018-12-11T12:38:13.002Z,14.35
2018-12-11T12:40:40.456Z,13.65
2018-12-11T12:43:07.873Z,11.88
2018-12-11T12:45:35.269Z,11.43
2018-12-11T12:48:02.669Z,14.15
2018-12-11T12:50:30.118Z,14.13
2018-12-11T12:52:57.512Z,17.10
2018-12-11T12:55:24.905Z,10.85
2018-12-11T12:57:52.321Z,19.92
2018-12-11T13:00:19.709Z,10.75
2018-12-11T13:02:50.075Z,12.50
2018-12-11T13:05:16.776Z,18.05
2018-12-11T13:07:44.336Z,15.85
2018-12-11T13:10:11.778Z,7.53
2018-12-11T13:12:39.428Z,12.37
2018-12-11T13:15:07.423Z,15.15
2018-12-11T13:17:35.008Z,18.57
2018-12-11T13:20:02.458Z,17.75
2018-12-11T13:22:29.849Z,17.35
2018-12-11T13:24:57.240Z,18.90
2018-12-11T13:27:24.685Z,14.83
2018-12-11T13:29:52.088Z,19.48
2018-12-11T13:32:19.532Z,21.95
2018-12-11T13:34:46.937Z,12.50
2018-12-11T13:37:14.424Z,18.05
2018-12-11T13:39:41.824Z,16.32
2018-12-11T13:42:09.349Z,17.32
2018-12-11T13:44:36.720Z,14.87
2018-12-11T13:47:04.257Z,17.50
2018-12-11T13:49:31.652Z,12.82
2018-12-11T13:51:59.061Z,17.55
2018-12-11T13:54:26.458Z,15.90
2018-12-11T13:56:53.865Z,18.87
2018-12-11T13:59:21.255Z,15.63
2018-12-11T14:01:48.648Z,12.10
2018-12-11T14:04:16.042Z,15.55
2018-12-11T14:06:43.436Z,15.38
2018-12-11T14:09:16.616Z,17.00
2018-12-11T14:11:43.992Z,13.93
2018-12-11T14:14:11.452Z,20.37
2018-12-11T14:16:38.888Z,20.17
2018-12-11T14:19:06.364Z,14.20
2018-12-11T14:21:33.791Z,16.87
2018-12-11T14:24:01.180Z,14.15
2018-12-11T14:26:28.628Z,13.25
2018-12-11T14:28:56.120Z,13.20
2018-12-11T14:31:23.527Z,26.07
2018-12-11T14:33:50.918Z,21.55
2018-12-11T14:36:18.336Z,13.25
2018-12-11T14:38:45.726Z,20.40
2018-12-11T14:41:13.120Z,13.85
2018-12-11T14:43:40.512Z,15.70
2018-12-11T14:46:07.900Z,14.68
2018-12-11T14:48:35.292Z,19.50
2018-12-11T14:51:02.685Z,20.32
2018-12-11T14:53:30.180Z,14.10
2018-12-11T14:55:57.645Z,17.70
2018-12-11T14:58:25.041Z,18.05
2018-12-11T15:00:52.441Z,13.35
2018-12-11T15:03:19.890Z,16.02
2018-12-11T15:05:47.294Z,16.27
2018-12-11T15:08:14.700Z,14.93
2018-12-11T15:10:42.249Z,15.38
2018-12-11T15:13:09.648Z,14.38
2018-12-11T15:15:37.139Z,22.20
2018-12-11T15:18:04.528Z,13.88
2018-12-11T15:20:31.924Z,15.00
2018-12-11T15:22:59.317Z,12.18
2018-12-11T15:25:26.728Z,12.85
2018-12-11T15:27:54.312Z,18.15
2018-12-11T15:30:21.703Z,11.28
2018-12-11T15:32:49.109Z,13.32
2018-12-11T15:35:16.510Z,14.03
2018-12-11T15:37:43.919Z,23.25
2018-12-11T15:40:11.318Z,14.55
2018-12-11T15:42:38.790Z,17.95
2018-12-11T15:45:06.482Z,13.28
2018-12-11T15:47:33.901Z,15.20
2018-12-11T15:50:01.314Z,16.00
2018-12-11T15:52:28.857Z,20.12
2018-12-11T15:54:56.254Z,39.80
2018-12-11T15:57:23.673Z,19.35
2018-12-11T15:59:51.081Z,12.93
2018-12-11T16:02:18.485Z,14.10
2018-12-11T16:07:26.629Z,22.85
2018-12-11T16:09:54.053Z,25.37
2018-12-11T16:12:21.452Z,18.12
2018-12-11T16:14:48.852Z,15.75
2018-12-11T16:17:16.301Z,16.20
2018-12-11T16:19:43.709Z,23.32
2018-12-11T16:22:12.010Z,25.82
2018-12-11T16:24:39.420Z,27.02
2018-12-11T16:27:06.881Z,22.58
2018-12-11T16:29:34.450Z,19.52
2018-12-11T16:32:02.792Z,23.35
2018-12-11T16:34:30.204Z,22.48
2018-12-11T16:36:57.609Z,26.10
2018-12-11T16:39:25.033Z,16.37
2018-12-11T16:41:52.437Z,16.20
2018-12-11T16:44:19.839Z,18.90
2018-12-11T16:46:47.286Z,23.30
2018-12-11T16:49:14.789Z,21.65
2018-12-11T16:51:42.212Z,20.12
2018-12-11T16:54:10.621Z,21.48
2018-12-11T16:56:38.071Z,29.75
2018-12-11T16:59:05.558Z,24.98
2018-12-11T17:01:32.945Z,21.48
2018-12-11T17:04:00.382Z,24.52
2018-12-11T17:06:27.780Z,27.98
2018-12-11T17:08:55.233Z,19.80
2018-12-11T17:11:22.652Z,22.62
2018-12-11T17:13:50.053Z,23.42
2018-12-11T17:16:17.465Z,25.20
2018-12-11T17:18:44.864Z,21.27
2018-12-11T17:21:12.284Z,24.18
2018-12-11T17:23:39.689Z,17.95
2018-12-11T17:26:07.101Z,20.10
2018-12-11T17:28:34.566Z,19.70
2018-12-11T17:31:02.034Z,26.25
2018-12-11T17:33:29.482Z,31.90
2018-12-11T17:35:56.928Z,17.15
2018-12-11T17:38:24.337Z,21.42
2018-12-11T17:40:51.760Z,35.60
2018-12-11T17:43:19.161Z,26.62
2018-12-11T17:45:46.577Z,29.98
2018-12-11T17:48:14.347Z,18.67
2018-12-11T17:50:41.980Z,24.55
2018-12-11T17:53:09.524Z,24.43
2018-12-11T17:55:40.713Z,25.02
2018-12-11T17:58:08.110Z,20.82
2018-12-11T18:00:36.721Z,22.15
2018-12-11T18:03:04.226Z,20.72
2018-12-11T18:05:31.641Z,27.42
2018-12-11T18:07:59.041Z,27.50
2018-12-11T18:10:26.578Z,31.85
2018-12-11T18:12:54.071Z,31.93
2018-12-11T18:15:21.562Z,41.60
2018-12-11T18:17:49.025Z,26.27
2018-12-11T18:20:16.431Z,24.12
2018-12-11T18:22:43.849Z,27.32
2018-12-11T18:25:11.245Z,24.90
2018-12-11T18:27:38.648Z,28.95
2018-12-11T18:30:06.359Z,23.62
2018-12-11T18:32:33.753Z,30.88
2018-12-11T18:39:50.811Z,20.10
2018-12-11T18:42:18.269Z,22.48
2018-12-11T18:44:45.704Z,25.15
2018-12-11T18:47:13.199Z,23.27
2018-12-11T18:49:40.604Z,28.73
2018-12-11T18:52:08.103Z,24.60
2018-12-11T18:54:35.509Z,20.20
2018-12-11T18:57:02.907Z,29.12
2018-12-11T18:59:30.317Z,21.20
2018-12-11T19:01:57.708Z,28.35
2018-12-11T19:04:25.111Z,24.00
2018-12-11T19:06:52.521Z,24.65
2018-12-11T19:09:19.925Z,24.00
2018-12-11T19:11:47.316Z,34.55
2018-12-11T19:14:14.727Z,24.60
2018-12-11T19:16:42.123Z,22.65
2018-12-11T19:19:09.532Z,27.62
2018-12-11T19:21:36.976Z,40.35
2018-12-11T19:24:05.069Z,33.65
2018-12-11T19:26:32.484Z,27.93
2018-12-11T19:28:59.884Z,32.20
2018-12-11T19:31:27.297Z,34.67
2018-12-11T19:33:54.689Z,28.92
2018-12-11T19:36:22.088Z,29.02
2018-12-11T19:38:49.496Z,34.65
2018-12-11T19:41:16.896Z,40.88
2018-12-11T19:43:44.324Z,40.08
2018-12-11T19:46:11.726Z,34.73
2018-12-11T19:48:39.120Z,38.02
2018-12-11T19:51:06.534Z,36.20
2018-12-11T19:53:33.969Z,44.20
2018-12-11T19:56:01.620Z,38.75
2018-12-11T19:58:29.035Z,44.05
2018-12-11T20:00:56.441Z,49.05
2018-12-11T20:03:23.837Z,51.40
2018-12-11T20:05:51.244Z,35.20
2018-12-11T20:08:18.640Z,35.80
2018-12-11T20:10:48.005Z,35.75
2018-12-11T20:13:15.407Z,38.28
2018-12-11T20:15:43.121Z,43.95
2018-12-11T20:18:13.024Z,40.25
2018-12-11T20:20:39.957Z,45.70
2018-12-11T20:23:07.432Z,35.88
2018-12-11T20:25:40.466Z,36.58
2018-12-11T20:28:07.997Z,37.28
2018-12-11T20:30:35.399Z,38.60
2018-12-11T20:33:02.893Z,42.70
2018-12-11T20:35:30.387Z,45.38
2018-12-11T20:37:57.843Z,45.50
2018-12-11T20:40:25.373Z,42.40
2018-12-11T20:42:52.792Z,46.05
2018-12-11T20:45:20.206Z,42.58
2018-12-11T20:47:47.643Z,37.45
2018-12-11T20:50:15.048Z,40.48
2018-12-11T20:52:42.451Z,43.80
2018-12-11T20:55:09.848Z,38.30
2018-12-11T20:57:37.257Z,36.35
2018-12-11T21:00:07.765Z,40.03
2018-12-11T21:02:35.172Z,48.78
2018-12-11T21:05:02.613Z,54.27
2018-12-11T21:07:30.029Z,49.95
2018-12-11T21:09:57.433Z,42.78
2018-12-11T21:12:24.845Z,44.45
2018-12-11T21:14:52.262Z,39.03
2018-12-11T21:17:19.656Z,37.75
2018-12-11T21:19:47.065Z,39.88
2018-12-11T21:22:14.456Z,40.08
2018-12-11T21:24:43.365Z,41.20
2018-12-11T21:27:10.797Z,35.70
2018-12-11T21:29:38.193Z,40.05
2018-12-11T21:32:05.598Z,40.28
2018-12-11T21:34:32.996Z,45.00
2018-12-11T21:37:00.405Z,35.92
2018-12-11T21:39:28.425Z,62.60
2018-12-11T21:41:55.821Z,45.35
2018-12-11T21:44:23.220Z,54.27
2018-12-11T21:46:50.620Z,51.48
2018-12-11T21:49:18.960Z,37.75
2018-12-11T21:51:46.361Z,36.08
2018-12-11T21:54:13.752Z,38.85
2018-12-11T21:56:41.164Z,40.65
2018-12-11T21:59:08.557Z,40.80
2018-12-11T22:01:35.964Z,41.53
2018-12-11T22:04:03.421Z,35.35
2018-12-11T22:06:30.823Z,47.83
2018-12-11T22:08:58.289Z,33.58
2018-12-11T22:11:25.676Z,38.75
2018-12-11T22:13:53.072Z,46.53
2018-12-11T22:16:21.404Z,46.55
2018-12-11T22:18:48.795Z,36.33
2018-12-11T22:21:16.204Z,41.88
2018-12-11T22:23:43.597Z,52.88
2018-12-11T22:26:11.000Z,33.13
2018-12-11T22:28:38.404Z,52.00
2018-12-11T22:31:05.842Z,42.50
2018-12-11T22:33:33.249Z,32.45
2018-12-11T22:36:00.641Z,35.25
2018-12-11T22:38:28.102Z,45.03
2018-12-11T22:40:55.493Z,45.58
2018-12-11T22:43:22.896Z,47.55
2018-12-11T22:45:50.294Z,34.23
2018-12-11T22:48:17.706Z,33.65
2018-12-11T22:50:45.102Z,30.00
2018-12-11T22:53:12.496Z,39.45
2018-12-11T22:55:39.904Z,31.50
2018-12-11T22:58:07.300Z,28.12
2018-12-11T23:00:34.856Z,28.45
2018-12-11T23:03:02.251Z,21.25
2018-12-11T23:05:29.745Z,30.12
2018-12-11T23:07:57.192Z,23.05
2018-12-11T23:10:24.666Z,23.62
2018-12-11T23:12:52.094Z,24.25
2018-12-11T23:15:19.488Z,27.27
2018-12-11T23:17:46.900Z,28.17
2018-12-11T23:20:14.373Z,23.45
2018-12-11T23:22:41.765Z,30.85
2018-12-11T23:25:09.348Z,27.65
2018-12-11T23:27:36.748Z,24.60
2018-12-11T23:30:04.744Z,32.33
2018-12-11T23:32:32.160Z,28.30
2018-12-11T23:34:59.716Z,34.70
2018-12-11T23:37:27.220Z,26.55
2018-12-11T23:39:54.621Z,29.52
2018-12-11T23:42:22.017Z,23.10
2018-12-11T23:44:49.424Z,25.68
2018-12-11T23:47:16.820Z,36.30
2018-12-11T23:49:44.233Z,23.62
2018-12-11T23:52:11.631Z,27.42
2018-12-11T23:54:39.024Z,27.60
2018-12-11T23:57:06.432Z,28.73
2018-12-11T23:59:33.926Z,24.63
